sensor_id;sensor_type;location;lat;lon;timestamp;pressure;altitude;pressure_sealevel;temperature;humidity
61537;BME280;48695;53.480;-6.300;2023-03-13T00:03:39;97669.25;;;14.22;74.34
61537;BME280;48695;53.480;-6.300;2023-03-13T00:06:04;97627.03;;;13.94;74.60
61537;BME280;48695;53.480;-6.300;2023-03-13T00:08:30;97656.00;;;14.23;74.36
61537;BME280;48695;53.480;-6.300;2023-03-13T00:10:56;97657.69;;;14.24;74.61
61537;BME280;48695;53.480;-6.300;2023-03-13T00:13:22;97664.00;;;14.22;74.43
61537;BME280;48695;53.480;-6.300;2023-03-13T00:15:47;97659.59;;;14.22;74.22
61537;BME280;48695;53.480;-6.300;2023-03-13T00:18:13;97634.31;;;14.21;73.95
61537;BME280;48695;53.480;-6.300;2023-03-13T00:20:38;97567.03;;;14.11;74.36
61537;BME280;48695;53.480;-6.300;2023-03-13T00:23:04;97595.22;;;14.18;74.24
61537;BME280;48695;53.480;-6.300;2023-03-13T00:25:29;97591.66;;;14.19;74.07
61537;BME280;48695;53.480;-6.300;2023-03-13T00:27:55;97578.38;;;14.21;73.68
61537;BME280;48695;53.480;-6.300;2023-03-13T00:30:20;97589.28;;;14.16;74.16
61537;BME280;48695;53.480;-6.300;2023-03-13T00:32:46;97578.09;;;14.14;73.95
61537;BME280;48695;53.480;-6.300;2023-03-13T00:35:13;97565.63;;;14.07;74.14
61537;BME280;48695;53.480;-6.300;2023-03-13T00:37:39;97532.19;;;13.99;74.92
61537;BME280;48695;53.480;-6.300;2023-03-13T00:40:05;97551.66;;;13.96;75.05
61537;BME280;48695;53.480;-6.300;2023-03-13T00:42:31;97527.97;;;13.77;75.10
61537;BME280;48695;53.480;-6.300;2023-03-13T00:44:56;97472.94;;;13.46;75.00
61537;BME280;48695;53.480;-6.300;2023-03-13T00:47:22;97552.84;;;13.83;75.36
61537;BME280;48695;53.480;-6.300;2023-03-13T00:49:47;97529.59;;;13.68;75.55
61537;BME280;48695;53.480;-6.300;2023-03-13T00:52:12;97540.41;;;13.75;75.72
61537;BME280;48695;53.480;-6.300;2023-03-13T00:54:38;97535.41;;;13.72;76.00
61537;BME280;48695;53.480;-6.300;2023-03-13T00:57:03;97550.31;;;13.71;75.86
61537;BME280;48695;53.480;-6.300;2023-03-13T00:59:29;97527.94;;;13.67;76.46
61537;BME280;48695;53.480;-6.300;2023-03-13T01:01:54;97522.97;;;13.64;76.18
61537;BME280;48695;53.480;-6.300;2023-03-13T01:04:20;97462.69;;;13.34;76.79
61537;BME280;48695;53.480;-6.300;2023-03-13T01:06:45;97506.78;;;13.59;76.76
61537;BME280;48695;53.480;-6.300;2023-03-13T01:09:13;97497.69;;;13.63;76.56
61537;BME280;48695;53.480;-6.300;2023-03-13T01:11:40;97482.38;;;13.59;76.88
61537;BME280;48695;53.480;-6.300;2023-03-13T01:14:09;97448.88;;;13.32;76.86
61537;BME280;48695;53.480;-6.300;2023-03-13T01:16:36;97470.34;;;13.56;77.17
61537;BME280;48695;53.480;-6.300;2023-03-13T01:19:04;97466.06;;;13.55;76.89
61537;BME280;48695;53.480;-6.300;2023-03-13T01:21:30;97465.25;;;13.55;77.29
61537;BME280;48695;53.480;-6.300;2023-03-13T01:23:56;97468.69;;;13.55;77.38
61537;BME280;48695;53.480;-6.300;2023-03-13T01:26:22;97447.00;;;13.53;77.28
61537;BME280;48695;53.480;-6.300;2023-03-13T01:28:48;97440.69;;;13.56;77.26
61537;BME280;48695;53.480;-6.300;2023-03-13T01:31:16;97449.47;;;13.45;77.22
61537;BME280;48695;53.480;-6.300;2023-03-13T01:33:43;97442.19;;;13.58;77.20
61537;BME280;48695;53.480;-6.300;2023-03-13T01:36:09;97432.69;;;13.57;77.51
61537;BME280;48695;53.480;-6.300;2023-03-13T01:38:35;97433.66;;;13.56;77.55
61537;BME280;48695;53.480;-6.300;2023-03-13T01:41:01;97450.34;;;13.55;77.48
61537;BME280;48695;53.480;-6.300;2023-03-13T01:43:29;97445.09;;;13.55;77.80
61537;BME280;48695;53.480;-6.300;2023-03-13T01:51:34;97439.72;;;13.57;77.61
61537;BME280;48695;53.480;-6.300;2023-03-13T01:54:15;97440.44;;;13.59;77.86
61537;BME280;48695;53.480;-6.300;2023-03-13T01:59:18;97425.25;;;13.62;77.77
61537;BME280;48695;53.480;-6.300;2023-03-13T02:01:46;97428.56;;;13.64;77.41
61537;BME280;48695;53.480;-6.300;2023-03-13T02:04:13;97407.59;;;13.64;77.94
61537;BME280;48695;53.480;-6.300;2023-03-13T02:06:42;97411.72;;;13.67;77.34
61537;BME280;48695;53.480;-6.300;2023-03-13T02:09:16;97405.41;;;13.69;77.48
61537;BME280;48695;53.480;-6.300;2023-03-13T02:11:47;97400.84;;;13.71;77.72
61537;BME280;48695;53.480;-6.300;2023-03-13T02:14:16;97401.81;;;13.70;77.74
61537;BME280;48695;53.480;-6.300;2023-03-13T02:16:43;97396.28;;;13.73;77.22
61537;BME280;48695;53.480;-6.300;2023-03-13T02:19:19;97372.25;;;13.68;77.13
61537;BME280;48695;53.480;-6.300;2023-03-13T02:21:54;97368.81;;;13.77;76.97
61537;BME280;48695;53.480;-6.300;2023-03-13T02:24:34;97370.22;;;13.82;77.45
61537;BME280;48695;53.480;-6.300;2023-03-13T02:27:02;97369.66;;;13.78;76.84
61537;BME280;48695;53.480;-6.300;2023-03-13T02:29:28;97358.06;;;13.81;76.99
61537;BME280;48695;53.480;-6.300;2023-03-13T02:31:53;97384.97;;;13.83;76.89
61537;BME280;48695;53.480;-6.300;2023-03-13T02:34:22;97377.53;;;13.88;77.15
61537;BME280;48695;53.480;-6.300;2023-03-13T02:36:48;97370.63;;;13.87;77.10
61537;BME280;48695;53.480;-6.300;2023-03-13T02:39:16;97348.69;;;13.88;77.18
61537;BME280;48695;53.480;-6.300;2023-03-13T02:41:43;97352.69;;;13.92;77.15
61537;BME280;48695;53.480;-6.300;2023-03-13T02:44:10;97343.31;;;13.89;76.96
61537;BME280;48695;53.480;-6.300;2023-03-13T02:46:47;97339.16;;;13.96;76.73
61537;BME280;48695;53.480;-6.300;2023-03-13T02:49:27;97343.59;;;13.96;76.51
61537;BME280;48695;53.480;-6.300;2023-03-13T02:51:56;97310.44;;;13.85;76.42
61537;BME280;48695;53.480;-6.300;2023-03-13T02:54:31;97312.09;;;13.96;76.26
61537;BME280;48695;53.480;-6.300;2023-03-13T02:57:00;97314.88;;;13.94;76.54
61537;BME280;48695;53.480;-6.300;2023-03-13T02:59:26;97300.22;;;13.92;76.75
61537;BME280;48695;53.480;-6.300;2023-03-13T03:01:52;97294.97;;;13.92;76.21
61537;BME280;48695;53.480;-6.300;2023-03-13T03:04:24;97290.28;;;13.95;76.07
61537;BME280;48695;53.480;-6.300;2023-03-13T03:06:50;97299.41;;;13.91;76.28
61537;BME280;48695;53.480;-6.300;2023-03-13T03:09:17;97296.09;;;13.80;76.20
61537;BME280;48695;53.480;-6.300;2023-03-13T03:11:42;97269.59;;;13.83;76.10
61537;BME280;48695;53.480;-6.300;2023-03-13T03:14:09;97262.28;;;13.86;75.73
61537;BME280;48695;53.480;-6.300;2023-03-13T03:16:35;97262.13;;;13.78;76.25
61537;BME280;48695;53.480;-6.300;2023-03-13T03:19:00;97254.16;;;13.80;76.04
61537;BME280;48695;53.480;-6.300;2023-03-13T03:21:26;97254.16;;;13.80;75.65
61537;BME280;48695;53.480;-6.300;2023-03-13T03:23:51;97260.47;;;13.77;76.10
61537;BME280;48695;53.480;-6.300;2023-03-13T03:26:17;97256.22;;;13.76;75.85
61537;BME280;48695;53.480;-6.300;2023-03-13T03:28:42;97265.88;;;13.75;75.84
61537;BME280;48695;53.480;-6.300;2023-03-13T03:31:10;97262.44;;;13.75;75.63
61537;BME280;48695;53.480;-6.300;2023-03-13T03:33:37;97246.13;;;13.71;75.62
61537;BME280;48695;53.480;-6.300;2023-03-13T03:36:05;97240.22;;;13.69;76.26
61537;BME280;48695;53.480;-6.300;2023-03-13T03:38:31;97236.75;;;13.69;75.91
61537;BME280;48695;53.480;-6.300;2023-03-13T03:40:57;97221.72;;;13.61;75.81
61537;BME280;48695;53.480;-6.300;2023-03-13T03:43:22;97228.19;;;13.67;75.86
61537;BME280;48695;53.480;-6.300;2023-03-13T03:45:48;97230.66;;;13.68;75.77
61537;BME280;48695;53.480;-6.300;2023-03-13T03:48:13;97225.41;;;13.68;76.28
61537;BME280;48695;53.480;-6.300;2023-03-13T03:50:39;97223.66;;;13.69;75.71
61537;BME280;48695;53.480;-6.300;2023-03-13T03:53:04;97227.38;;;13.66;76.40
61537;BME280;48695;53.480;-6.300;2023-03-13T03:55:30;97215.22;;;13.65;75.84
61537;BME280;48695;53.480;-6.300;2023-03-13T03:57:55;97218.53;;;13.67;75.53
61537;BME280;48695;53.480;-6.300;2023-03-13T04:00:20;97211.38;;;13.69;75.80
61537;BME280;48695;53.480;-6.300;2023-03-13T04:02:46;97217.16;;;13.63;75.42
61537;BME280;48695;53.480;-6.300;2023-03-13T04:05:12;97216.06;;;13.66;75.33
61537;BME280;48695;53.480;-6.300;2023-03-13T04:07:37;97211.91;;;13.63;75.20
61537;BME280;48695;53.480;-6.300;2023-03-13T04:10:03;97198.13;;;13.61;75.09
61537;BME280;48695;53.480;-6.300;2023-03-13T04:12:29;97163.38;;;13.40;74.30
61537;BME280;48695;53.480;-6.300;2023-03-13T04:14:54;97211.63;;;13.47;74.14
61537;BME280;48695;53.480;-6.300;2023-03-13T04:17:19;97238.00;;;13.36;74.36
61537;BME280;48695;53.480;-6.300;2023-03-13T04:19:45;97233.44;;;13.28;74.40
61537;BME280;48695;53.480;-6.300;2023-03-13T04:22:10;97215.31;;;13.15;74.01
61537;BME280;48695;53.480;-6.300;2023-03-13T04:24:36;97206.88;;;13.02;74.33
61537;BME280;48695;53.480;-6.300;2023-03-13T04:27:01;97228.66;;;12.93;74.76
61537;BME280;48695;53.480;-6.300;2023-03-13T04:29:28;97241.03;;;12.81;74.88
61537;BME280;48695;53.480;-6.300;2023-03-13T04:31:54;97201.03;;;12.69;74.55
61537;BME280;48695;53.480;-6.300;2023-03-13T04:34:19;97223.75;;;12.59;75.04
61537;BME280;48695;53.480;-6.300;2023-03-13T04:36:45;97195.59;;;12.42;75.36
61537;BME280;48695;53.480;-6.300;2023-03-13T04:39:10;97186.00;;;12.22;75.31
61537;BME280;48695;53.480;-6.300;2023-03-13T04:41:36;97189.31;;;12.24;76.43
61537;BME280;48695;53.480;-6.300;2023-03-13T04:44:01;97187.34;;;12.16;76.15
61537;BME280;48695;53.480;-6.300;2023-03-13T04:46:27;97194.19;;;12.07;76.99
61537;BME280;48695;53.480;-6.300;2023-03-13T04:48:52;97185.91;;;12.02;77.09
61537;BME280;48695;53.480;-6.300;2023-03-13T04:51:17;97186.56;;;11.94;77.31
61537;BME280;48695;53.480;-6.300;2023-03-13T04:53:43;97190.94;;;11.94;77.25
61537;BME280;48695;53.480;-6.300;2023-03-13T04:56:11;97202.38;;;11.93;77.28
61537;BME280;48695;53.480;-6.300;2023-03-13T04:58:40;97184.47;;;11.88;77.23
61537;BME280;48695;53.480;-6.300;2023-03-13T05:01:06;97195.75;;;11.89;77.45
61537;BME280;48695;53.480;-6.300;2023-03-13T05:03:31;97176.75;;;11.87;77.67
61537;BME280;48695;53.480;-6.300;2023-03-13T05:05:56;97171.09;;;11.70;77.78
61537;BME280;48695;53.480;-6.300;2023-03-13T05:08:22;97181.63;;;11.80;77.76
61537;BME280;48695;53.480;-6.300;2023-03-13T05:10:47;97182.72;;;11.78;77.67
61537;BME280;48695;53.480;-6.300;2023-03-13T05:13:13;97174.88;;;11.78;78.11
61537;BME280;48695;53.480;-6.300;2023-03-13T05:15:38;97156.56;;;11.78;78.03
61537;BME280;48695;53.480;-6.300;2023-03-13T05:18:04;97158.47;;;11.76;78.00
61537;BME280;48695;53.480;-6.300;2023-03-13T05:20:29;97156.81;;;11.75;78.41
61537;BME280;48695;53.480;-6.300;2023-03-13T05:22:55;97149.94;;;11.74;78.47
61537;BME280;48695;53.480;-6.300;2023-03-13T05:25:20;97156.28;;;11.71;78.39
61537;BME280;48695;53.480;-6.300;2023-03-13T05:27:46;97157.94;;;11.72;78.36
61537;BME280;48695;53.480;-6.300;2023-03-13T05:30:11;97153.53;;;11.73;77.81
61537;BME280;48695;53.480;-6.300;2023-03-13T05:32:37;97139.50;;;11.74;77.91
61537;BME280;48695;53.480;-6.300;2023-03-13T05:35:02;97135.91;;;11.75;78.21
61537;BME280;48695;53.480;-6.300;2023-03-13T05:37:28;97134.25;;;11.74;77.84
61537;BME280;48695;53.480;-6.300;2023-03-13T05:39:53;97139.50;;;11.74;77.91
61537;BME280;48695;53.480;-6.300;2023-03-13T05:42:19;97116.94;;;11.73;78.44
61537;BME280;48695;53.480;-6.300;2023-03-13T05:44:44;97120.50;;;11.72;77.85
61537;BME280;48695;53.480;-6.300;2023-03-13T05:47:09;97125.97;;;11.68;78.18
61537;BME280;48695;53.480;-6.300;2023-03-13T05:49:35;97114.84;;;11.66;77.83
61537;BME280;48695;53.480;-6.300;2023-03-13T05:52:00;97132.84;;;11.69;78.28
61537;BME280;48695;53.480;-6.300;2023-03-13T05:54:26;97132.03;;;11.69;78.29
61537;BME280;48695;53.480;-6.300;2023-03-13T05:56:51;97120.75;;;11.68;78.67
61537;BME280;48695;53.480;-6.300;2023-03-13T05:59:16;97125.16;;;11.68;78.19
61537;BME280;48695;53.480;-6.300;2023-03-13T06:01:42;97113.88;;;11.67;77.72
61537;BME280;48695;53.480;-6.300;2023-03-13T06:04:07;97107.69;;;11.68;77.58
61537;BME280;48695;53.480;-6.300;2023-03-13T06:06:33;97108.91;;;11.64;78.38
61537;BME280;48695;53.480;-6.300;2023-03-13T06:08:58;97106.19;;;11.66;78.05
61537;BME280;48695;53.480;-6.300;2023-03-13T06:11:23;97122.25;;;11.61;78.08
61537;BME280;48695;53.480;-6.300;2023-03-13T06:13:52;97084.50;;;11.54;78.17
61537;BME280;48695;53.480;-6.300;2023-03-13T06:16:17;97095.53;;;11.58;78.21
61537;BME280;48695;53.480;-6.300;2023-03-13T06:18:43;97086.09;;;11.66;78.06
61537;BME280;48695;53.480;-6.300;2023-03-13T06:21:09;97088.69;;;11.66;78.50
61537;BME280;48695;53.480;-6.300;2023-03-13T06:23:35;97087.75;;;11.67;78.44
61537;BME280;48695;53.480;-6.300;2023-03-13T06:26:01;97064.22;;;11.67;78.20
61537;BME280;48695;53.480;-6.300;2023-03-13T06:28:26;97075.34;;;11.69;78.42
61537;BME280;48695;53.480;-6.300;2023-03-13T06:30:52;97061.31;;;11.70;78.73
61537;BME280;48695;53.480;-6.300;2023-03-13T06:33:17;97069.06;;;11.72;78.47
61537;BME280;48695;53.480;-6.300;2023-03-13T06:35:43;97073.31;;;11.73;78.34
61537;BME280;48695;53.480;-6.300;2023-03-13T06:38:09;97078.16;;;11.78;78.46
61537;BME280;48695;53.480;-6.300;2023-03-13T06:40:35;97080.91;;;11.76;78.20
61537;BME280;48695;53.480;-6.300;2023-03-13T06:43:00;97089.44;;;11.78;78.15
61537;BME280;48695;53.480;-6.300;2023-03-13T06:45:26;97083.09;;;11.81;78.26
61537;BME280;48695;53.480;-6.300;2023-03-13T06:47:51;97072.94;;;11.78;78.70
61537;BME280;48695;53.480;-6.300;2023-03-13T06:50:17;97090.03;;;11.82;78.60
61537;BME280;48695;53.480;-6.300;2023-03-13T06:52:43;97081.75;;;11.77;78.55
61537;BME280;48695;53.480;-6.300;2023-03-13T06:55:09;97103.56;;;11.87;78.89
61537;BME280;48695;53.480;-6.300;2023-03-13T06:57:34;97087.72;;;11.88;78.44
61537;BME280;48695;53.480;-6.300;2023-03-13T07:00:00;97106.59;;;11.92;78.74
61537;BME280;48695;53.480;-6.300;2023-03-13T07:02:25;97080.47;;;11.92;78.62
61537;BME280;48695;53.480;-6.300;2023-03-13T07:04:50;97091.34;;;11.97;78.76
61537;BME280;48695;53.480;-6.300;2023-03-13T07:07:16;97094.66;;;11.99;78.65
61537;BME280;48695;53.480;-6.300;2023-03-13T07:09:41;97083.50;;;11.97;78.31
61537;BME280;48695;53.480;-6.300;2023-03-13T07:12:07;97088.44;;;12.00;78.32
61537;BME280;48695;53.480;-6.300;2023-03-13T07:14:32;97088.19;;;12.03;78.08
61537;BME280;48695;53.480;-6.300;2023-03-13T07:16:58;97086.38;;;11.94;78.14
61537;BME280;48695;53.480;-6.300;2023-03-13T07:19:24;97101.94;;;12.05;78.29
61537;BME280;48695;53.480;-6.300;2023-03-13T07:21:51;97108.00;;;12.06;78.53
61537;BME280;48695;53.480;-6.300;2023-03-13T07:24:17;97106.94;;;12.08;78.57
61537;BME280;48695;53.480;-6.300;2023-03-13T07:26:43;97109.69;;;12.07;78.48
61537;BME280;48695;53.480;-6.300;2023-03-13T07:29:09;97100.88;;;12.08;78.52
61537;BME280;48695;53.480;-6.300;2023-03-13T07:31:34;97096.47;;;12.08;78.30
61537;BME280;48695;53.480;-6.300;2023-03-13T07:34:00;97102.53;;;12.09;78.40
61537;BME280;48695;53.480;-6.300;2023-03-13T07:36:25;97106.94;;;12.08;78.38
61537;BME280;48695;53.480;-6.300;2023-03-13T07:38:51;97115.47;;;12.10;78.31
61537;BME280;48695;53.480;-6.300;2023-03-13T07:41:18;97130.31;;;12.10;78.10
61537;BME280;48695;53.480;-6.300;2023-03-13T07:43:44;97134.47;;;12.12;78.06
61537;BME280;48695;53.480;-6.300;2023-03-13T07:46:12;97125.81;;;12.12;78.13
61537;BME280;48695;53.480;-6.300;2023-03-13T07:48:39;97137.91;;;12.13;78.52
61537;BME280;48695;53.480;-6.300;2023-03-13T07:51:07;97124.84;;;12.13;78.47
61537;BME280;48695;53.480;-6.300;2023-03-13T07:53:34;97126.50;;;12.14;78.58
61537;BME280;48695;53.480;-6.300;2023-03-13T07:56:10;97131.47;;;12.17;78.81
61537;BME280;48695;53.480;-6.300;2023-03-13T07:58:37;97127.06;;;12.17;78.74
61537;BME280;48695;53.480;-6.300;2023-03-13T08:01:08;97124.16;;;12.20;78.71
61537;BME280;48695;53.480;-6.300;2023-03-13T08:03:34;97127.09;;;12.27;78.69
61537;BME280;48695;53.480;-6.300;2023-03-13T08:06:01;97121.97;;;12.26;78.95
61537;BME280;48695;53.480;-6.300;2023-03-13T08:08:27;97123.38;;;12.30;78.75
61537;BME280;48695;53.480;-6.300;2023-03-13T08:10:53;97121.91;;;12.37;79.04
61537;BME280;48695;53.480;-6.300;2023-03-13T08:13:18;97120.13;;;12.47;78.82
61537;BME280;48695;53.480;-6.300;2023-03-13T08:15:43;97128.00;;;12.47;78.71
61537;BME280;48695;53.480;-6.300;2023-03-13T08:18:09;97123.84;;;12.54;78.98
61537;BME280;48695;53.480;-6.300;2023-03-13T08:20:34;97127.59;;;12.61;78.59
61537;BME280;48695;53.480;-6.300;2023-03-13T08:23:00;97131.59;;;12.65;78.47
61537;BME280;48695;53.480;-6.300;2023-03-13T08:25:25;97138.78;;;12.73;78.42
61537;BME280;48695;53.480;-6.300;2023-03-13T08:27:51;97123.47;;;12.68;78.24
61537;BME280;48695;53.480;-6.300;2023-03-13T08:30:16;97141.00;;;12.78;78.39
61537;BME280;48695;53.480;-6.300;2023-03-13T08:32:42;97145.41;;;12.87;78.67
61537;BME280;48695;53.480;-6.300;2023-03-13T08:35:07;97135.47;;;12.90;78.51
61537;BME280;48695;53.480;-6.300;2023-03-13T08:37:33;97141.00;;;12.97;78.07
61537;BME280;48695;53.480;-6.300;2023-03-13T08:39:58;97135.75;;;12.97;77.97
61537;BME280;48695;53.480;-6.300;2023-03-13T08:42:24;97130.25;;;13.00;77.76
61537;BME280;48695;53.480;-6.300;2023-03-13T08:44:49;97143.09;;;13.03;78.03
61537;BME280;48695;53.480;-6.300;2023-03-13T08:47:15;97137.13;;;13.01;77.68
61537;BME280;48695;53.480;-6.300;2023-03-13T08:49:42;97151.63;;;13.05;77.66
61537;BME280;48695;53.480;-6.300;2023-03-13T08:52:08;97140.16;;;13.06;78.00
61537;BME280;48695;53.480;-6.300;2023-03-13T08:54:33;97143.50;;;13.08;77.89
61537;BME280;48695;53.480;-6.300;2023-03-13T08:56:59;97139.34;;;13.06;78.19
61537;BME280;48695;53.480;-6.300;2023-03-13T08:59:25;97133.44;;;13.13;78.09
61537;BME280;48695;53.480;-6.300;2023-03-13T09:01:50;97115.63;;;13.17;77.76
61537;BME280;48695;53.480;-6.300;2023-03-13T09:04:17;97130.25;;;13.19;77.30
61537;BME280;48695;53.480;-6.300;2023-03-13T09:06:43;97123.38;;;13.18;77.29
61537;BME280;48695;53.480;-6.300;2023-03-13T09:09:09;97131.91;;;13.20;77.57
61537;BME280;48695;53.480;-6.300;2023-03-13T09:11:36;97162.00;;;13.26;77.90
61537;BME280;48695;53.480;-6.300;2023-03-13T09:14:01;97136.34;;;13.30;78.10
61537;BME280;48695;53.480;-6.300;2023-03-13T09:16:29;97138.56;;;13.34;77.95
61537;BME280;48695;53.480;-6.300;2023-03-13T09:18:55;97139.09;;;13.38;77.53
61537;BME280;48695;53.480;-6.300;2023-03-13T09:21:24;97142.41;;;13.40;77.19
61537;BME280;48695;53.480;-6.300;2023-03-13T09:23:50;97137.31;;;13.38;77.12
61537;BME280;48695;53.480;-6.300;2023-03-13T09:26:17;97147.66;;;13.40;77.37
61537;BME280;48695;53.480;-6.300;2023-03-13T09:28:43;97154.53;;;13.41;77.10
61537;BME280;48695;53.480;-6.300;2023-03-13T09:31:17;97160.34;;;13.44;77.26
61537;BME280;48695;53.480;-6.300;2023-03-13T09:33:43;97170.94;;;13.43;77.17
61537;BME280;48695;53.480;-6.300;2023-03-13T09:36:09;97159.53;;;13.44;77.13
61537;BME280;48695;53.480;-6.300;2023-03-13T09:38:36;97168.06;;;13.46;77.24
61537;BME280;48695;53.480;-6.300;2023-03-13T09:44:13;97187.09;;;13.48;77.16
61537;BME280;48695;53.480;-6.300;2023-03-13T09:49:38;97178.81;;;13.43;77.21
61537;BME280;48695;53.480;-6.300;2023-03-13T09:52:24;97181.44;;;13.43;77.09
61537;BME280;48695;53.480;-6.300;2023-03-13T09:54:58;97167.78;;;13.30;77.19
61537;BME280;48695;53.480;-6.300;2023-03-13T09:57:36;97186.25;;;13.38;77.34
61537;BME280;48695;53.480;-6.300;2023-03-13T10:00:13;97199.91;;;13.41;77.58
61537;BME280;48695;53.480;-6.300;2023-03-13T10:02:44;97188.63;;;13.41;77.31
61537;BME280;48695;53.480;-6.300;2023-03-13T10:05:15;97194.81;;;13.40;77.29
61537;BME280;48695;53.480;-6.300;2023-03-13T10:07:42;97185.84;;;13.42;77.83
61537;BME280;48695;53.480;-6.300;2023-03-13T10:10:20;97196.63;;;13.49;77.71
61537;BME280;48695;53.480;-6.300;2023-03-13T10:12:52;97191.22;;;13.50;77.47
61537;BME280;48695;53.480;-6.300;2023-03-13T10:15:50;97208.88;;;13.58;77.82
61537;BME280;48695;53.480;-6.300;2023-03-13T10:18:23;97188.75;;;13.59;77.32
61537;BME280;48695;53.480;-6.300;2023-03-13T10:20:56;97173.97;;;13.48;77.11
61537;BME280;48695;53.480;-6.300;2023-03-13T10:25:57;97182.53;;;13.60;77.28
61537;BME280;48695;53.480;-6.300;2023-03-13T10:28:24;97203.09;;;13.64;76.93
61537;BME280;48695;53.480;-6.300;2023-03-13T10:30:52;97197.84;;;13.64;77.33
61537;BME280;48695;53.480;-6.300;2023-03-13T10:33:22;97197.56;;;13.67;77.38
61537;BME280;48695;53.480;-6.300;2023-03-13T10:36:06;97200.88;;;13.69;77.64
61537;BME280;48695;53.480;-6.300;2023-03-13T10:38:34;97198.25;;;13.69;77.14
61537;BME280;48695;53.480;-6.300;2023-03-13T10:41:06;97203.91;;;13.74;77.56
61537;BME280;48695;53.480;-6.300;2023-03-13T10:43:34;97198.38;;;13.77;77.71
61537;BME280;48695;53.480;-6.300;2023-03-13T10:45:59;97181.28;;;13.64;77.07
61537;BME280;48695;53.480;-6.300;2023-03-13T10:48:28;97203.19;;;13.92;76.94
61537;BME280;48695;53.480;-6.300;2023-03-13T10:50:55;97192.56;;;13.84;76.88
61537;BME280;48695;53.480;-6.300;2023-03-13T10:53:33;97208.81;;;13.97;76.98
61537;BME280;48695;53.480;-6.300;2023-03-13T10:56:12;97206.75;;;14.00;76.97
61537;BME280;48695;53.480;-6.300;2023-03-13T10:58:47;97213.50;;;14.03;76.67
61537;BME280;48695;53.480;-6.300;2023-03-13T11:01:27;97214.22;;;14.05;76.95
61537;BME280;48695;53.480;-6.300;2023-03-13T11:03:55;97215.19;;;14.04;76.76
61537;BME280;48695;53.480;-6.300;2023-03-13T11:08:58;97213.63;;;14.11;77.27
61537;BME280;48695;53.480;-6.300;2023-03-13T11:11:23;97209.22;;;14.12;76.58
61537;BME280;48695;53.480;-6.300;2023-03-13T11:13:55;97209.06;;;14.13;76.89
61537;BME280;48695;53.480;-6.300;2023-03-13T11:16:31;97219.28;;;14.16;76.82
61537;BME280;48695;53.480;-6.300;2023-03-13T11:27:07;97221.56;;;14.29;76.19
61537;BME280;48695;53.480;-6.300;2023-03-13T11:32:25;97237.88;;;14.33;75.78
61537;BME280;48695;53.480;-6.300;2023-03-13T11:34:58;97224.25;;;14.19;75.54
61537;BME280;48695;53.480;-6.300;2023-03-13T11:37:27;97230.84;;;14.23;76.22
61537;BME280;48695;53.480;-6.300;2023-03-13T11:50:35;97218.47;;;15.08;78.01
61537;BME280;48695;53.480;-6.300;2023-03-13T11:59:01;97207.22;;;16.13;76.02
61537;BME280;48695;53.480;-6.300;2023-03-13T12:01:37;97213.41;;;16.30;75.23
61537;BME280;48695;53.480;-6.300;2023-03-13T12:09:22;97216.13;;;16.80;75.18
61537;BME280;48695;53.480;-6.300;2023-03-13T12:14:38;97212.13;;;17.27;73.13
61537;BME280;48695;53.480;-6.300;2023-03-13T12:17:09;97215.28;;;17.38;71.09
61537;BME280;48695;53.480;-6.300;2023-03-13T12:19:42;97165.47;;;17.11;71.48
61537;BME280;48695;53.480;-6.300;2023-03-13T12:22:23;97212.50;;;17.40;70.91
61537;BME280;48695;53.480;-6.300;2023-03-13T12:24:59;97214.94;;;17.33;71.21
61537;BME280;48695;53.480;-6.300;2023-03-13T12:27:30;97227.97;;;17.27;71.31
61537;BME280;48695;53.480;-6.300;2023-03-13T12:30:23;97220.19;;;17.17;70.87
61537;BME280;48695;53.480;-6.300;2023-03-13T12:35:29;97226.78;;;17.13;71.59
61537;BME280;48695;53.480;-6.300;2023-03-13T12:40:39;97224.34;;;17.20;71.97
61537;BME280;48695;53.480;-6.300;2023-03-13T12:43:25;97237.03;;;17.32;72.14
61537;BME280;48695;53.480;-6.300;2023-03-13T12:51:15;97231.97;;;17.63;69.30
61537;BME280;48695;53.480;-6.300;2023-03-13T12:54:45;97227.53;;;17.72;69.71
61537;BME280;48695;53.480;-6.300;2023-03-13T12:59:32;97231.81;;;17.65;67.78
61537;BME280;48695;53.480;-6.300;2023-03-13T13:02:01;97238.06;;;17.56;68.03
61537;BME280;48695;53.480;-6.300;2023-03-13T13:04:33;97230.13;;;17.48;68.41
61537;BME280;48695;53.480;-6.300;2023-03-13T13:07:19;97232.78;;;17.40;69.16
61537;BME280;48695;53.480;-6.300;2023-03-13T13:12:36;97226.81;;;17.21;68.82
61537;BME280;48695;53.480;-6.300;2023-03-13T13:15:10;97251.34;;;17.22;68.57
61537;BME280;48695;53.480;-6.300;2023-03-13T13:18:12;97239.47;;;17.09;68.86
61537;BME280;48695;53.480;-6.300;2023-03-13T13:23:30;97223.41;;;16.86;69.26
61537;BME280;48695;53.480;-6.300;2023-03-13T13:28:57;97266.69;;;16.50;69.06
61537;BME280;48695;53.480;-6.300;2023-03-13T13:37:02;97283.59;;;15.77;69.63
61537;BME280;48695;53.480;-6.300;2023-03-13T13:39:44;97285.88;;;15.45;68.25
61537;BME280;48695;53.480;-6.300;2023-03-13T13:48:15;97283.84;;;14.56;71.67
61537;BME280;48695;53.480;-6.300;2023-03-13T13:56:30;97293.31;;;14.10;74.47
61537;BME280;48695;53.480;-6.300;2023-03-13T13:59:05;97300.38;;;14.00;75.40
61537;BME280;48695;53.480;-6.300;2023-03-13T14:01:39;97319.28;;;13.94;76.78
61537;BME280;48695;53.480;-6.300;2023-03-13T14:07:17;97346.34;;;13.85;76.32
61537;BME280;48695;53.480;-6.300;2023-03-13T14:09:52;97345.94;;;13.80;77.10
61537;BME280;48695;53.480;-6.300;2023-03-13T14:12:37;97340.94;;;13.76;77.18
61537;BME280;48695;53.480;-6.300;2023-03-13T14:15:23;97345.78;;;13.71;75.92
61537;BME280;48695;53.480;-6.300;2023-03-13T14:17:54;97356.81;;;13.65;75.82
61537;BME280;48695;53.480;-6.300;2023-03-13T14:20:30;97353.19;;;13.57;76.00
61537;BME280;48695;53.480;-6.300;2023-03-13T14:22:59;97358.41;;;13.47;76.04
61537;BME280;48695;53.480;-6.300;2023-03-13T14:25:26;97364.47;;;13.38;76.05
61537;BME280;48695;53.480;-6.300;2023-03-13T14:27:53;97366.94;;;13.30;75.94
61537;BME280;48695;53.480;-6.300;2023-03-13T14:30:21;97362.34;;;13.22;75.77
61537;BME280;48695;53.480;-6.300;2023-03-13T14:32:47;97363.25;;;13.11;75.75
61537;BME280;48695;53.480;-6.300;2023-03-13T14:35:15;97372.34;;;13.07;76.60